createdAt,value
2018-10-16T00:02:27.806Z,56.10
2018-10-16T00:04:55.832Z,56.20
2018-10-16T00:07:23.866Z,56.30
2018-10-16T00:09:51.993Z,56.50
2018-10-16T00:12:20.003Z,56.40
2018-10-16T00:14:48.033Z,56.60
2018-10-16T00:17:16.460Z,56.60
2018-10-16T00:19:44.553Z,56.60
2018-10-16T00:22:12.574Z,56.60
2018-10-16T00:24:40.863Z,56.80
2018-10-16T00:27:09.189Z,57.00
2018-10-16T00:29:37.339Z,57.10
2018-10-16T00:32:05.720Z,57.20
2018-10-16T00:34:33.862Z,57.30
2018-10-16T00:37:01.986Z,57.50
2018-10-16T00:39:30.426Z,57.70
2018-10-16T00:41:58.767Z,57.70
2018-10-16T00:44:26.867Z,57.70
2018-10-16T00:46:55.099Z,58.00
2018-10-16T00:49:23.122Z,58.00
2018-10-16T00:51:51.151Z,58.20
2018-10-16T00:54:19.207Z,58.20
2018-10-16T00:56:47.236Z,58.30
2018-10-16T00:59:15.260Z,58.30
2018-10-16T01:01:43.318Z,58.60
2018-10-16T01:04:11.368Z,58.60
2018-10-16T01:06:39.379Z,59.40
2018-10-16T01:09:10.597Z,59.10
2018-10-16T01:11:39.132Z,59.70
2018-10-16T01:14:07.394Z,59.30
2018-10-16T01:16:35.479Z,59.50
2018-10-16T01:19:03.538Z,59.60
2018-10-16T01:21:31.564Z,59.60
2018-10-16T01:23:59.712Z,59.80
2018-10-16T01:26:27.804Z,59.90
2018-10-16T01:28:56.679Z,60.20
2018-10-16T01:31:25.143Z,60.60
2018-10-16T01:33:53.207Z,60.80
2018-10-16T01:36:21.313Z,60.90
2018-10-16T01:38:49.367Z,61.10
2018-10-16T01:41:17.397Z,61.00
2018-10-16T01:43:45.450Z,60.90
2018-10-16T01:46:13.500Z,61.00
2018-10-16T01:48:41.514Z,61.00
2018-10-16T01:51:09.540Z,61.30
2018-10-16T01:53:37.762Z,61.40
2018-10-16T01:56:05.822Z,61.70
2018-10-16T01:58:33.855Z,61.70
2018-10-16T02:01:02.022Z,62.00
2018-10-16T02:03:30.063Z,62.00
2018-10-16T02:05:58.145Z,62.30
2018-10-16T02:08:26.388Z,62.50
2018-10-16T02:10:54.564Z,62.70
2018-10-16T02:13:22.686Z,62.70
2018-10-16T02:15:51.038Z,62.70
2018-10-16T02:18:19.105Z,63.00
2018-10-16T02:20:47.138Z,63.30
2018-10-16T02:23:15.575Z,63.70
2018-10-16T02:25:43.623Z,63.90
2018-10-16T02:28:11.826Z,63.90
2018-10-16T02:30:40.395Z,63.80
2018-10-16T02:33:08.426Z,63.80
2018-10-16T02:35:36.453Z,63.80
2018-10-16T02:38:04.958Z,63.90
2018-10-16T02:40:33.013Z,64.00
2018-10-16T02:43:01.071Z,64.00
2018-10-16T02:45:29.183Z,64.30
2018-10-16T02:47:57.241Z,64.40
2018-10-16T02:50:25.271Z,64.40
2018-10-16T02:52:53.303Z,64.70
2018-10-16T02:55:21.357Z,64.70
2018-10-16T02:57:49.375Z,65.10
2018-10-16T03:00:18.565Z,65.20
2018-10-16T03:02:46.631Z,65.60
2018-10-16T03:05:14.641Z,65.40
2018-10-16T03:07:42.707Z,65.50
2018-10-16T03:10:10.843Z,65.40
2018-10-16T03:12:38.897Z,65.50
2018-10-16T03:15:08.947Z,65.50
2018-10-16T03:17:37.095Z,65.60
2018-10-16T03:20:05.397Z,65.30
2018-10-16T03:22:33.435Z,65.70
2018-10-16T03:25:13.011Z,66.00
2018-10-16T03:27:41.399Z,66.10
2018-10-16T03:30:10.562Z,66.40
2018-10-16T03:32:39.354Z,66.50
2018-10-16T03:35:07.955Z,66.70
2018-10-16T03:37:36.207Z,66.60
2018-10-16T03:40:04.276Z,66.70
2018-10-16T03:42:32.287Z,66.80
2018-10-16T03:45:00.315Z,66.90
2018-10-16T03:47:28.518Z,67.00
2018-10-16T03:49:56.635Z,66.80
2018-10-16T03:52:24.922Z,66.90
2018-10-16T03:54:53.135Z,67.10
2018-10-16T03:57:21.233Z,67.50
2018-10-16T03:59:49.219Z,67.30
2018-10-16T04:02:17.262Z,67.40
2018-10-16T04:04:45.412Z,67.80
2018-10-16T04:07:13.450Z,67.90
2018-10-16T04:09:41.628Z,67.80
2018-10-16T04:12:09.786Z,67.60
2018-10-16T04:14:37.814Z,67.60
2018-10-16T04:17:06.299Z,68.00
2018-10-16T04:19:34.413Z,68.10
2018-10-16T04:22:02.459Z,68.10
2018-10-16T04:24:30.504Z,68.40
2018-10-16T04:26:58.535Z,68.30
2018-10-16T04:29:26.814Z,68.50
2018-10-16T04:31:55.022Z,68.30
2018-10-16T04:34:23.261Z,68.40
2018-10-16T04:36:51.263Z,68.10
2018-10-16T04:39:19.322Z,68.40
2018-10-16T04:41:47.445Z,68.40
2018-10-16T04:44:15.392Z,68.70
2018-10-16T04:46:43.442Z,69.30
2018-10-16T04:49:11.537Z,68.60
2018-10-16T04:51:39.784Z,68.70
2018-10-16T04:54:08.266Z,68.80
2018-10-16T04:56:36.559Z,69.20
2018-10-16T04:59:04.694Z,69.50
2018-10-16T05:01:32.896Z,69.60
2018-10-16T05:04:01.000Z,69.70
2018-10-16T05:06:29.552Z,69.30
2018-10-16T05:08:57.722Z,69.20
2018-10-16T05:11:25.775Z,69.40
2018-10-16T05:13:53.790Z,69.50
2018-10-16T05:16:21.856Z,69.60
2018-10-16T05:18:50.107Z,69.90
2018-10-16T05:21:18.103Z,69.70
2018-10-16T05:23:46.553Z,70.20
2018-10-16T05:26:14.625Z,70.00
2018-10-16T05:28:42.639Z,70.00
2018-10-16T05:31:10.784Z,70.30
2018-10-16T05:33:38.970Z,70.70
2018-10-16T05:36:07.330Z,71.00
2018-10-16T05:38:35.439Z,71.20
2018-10-16T05:41:03.503Z,71.00
2018-10-16T05:43:31.635Z,70.90
2018-10-16T05:45:59.960Z,71.00
2018-10-16T05:48:28.047Z,70.90
2018-10-16T05:50:57.184Z,70.80
2018-10-16T05:53:25.246Z,70.50
2018-10-16T05:55:59.067Z,70.30
2018-10-16T05:58:27.199Z,70.10
2018-10-16T06:00:55.342Z,69.70
2018-10-16T06:03:23.440Z,69.30
2018-10-16T06:05:51.560Z,68.90
2018-10-16T06:08:19.818Z,68.40
2018-10-16T06:10:47.917Z,68.10
2018-10-16T06:13:15.904Z,67.40
2018-10-16T06:15:43.968Z,67.00
2018-10-16T06:18:12.531Z,66.20
2018-10-16T06:20:40.560Z,64.70
2018-10-16T06:23:08.579Z,63.00
2018-10-16T06:25:36.732Z,60.60
2018-10-16T06:28:15.089Z,58.70
2018-10-16T06:30:43.307Z,57.30
2018-10-16T06:33:11.619Z,55.10
2018-10-16T06:35:39.765Z,54.00
2018-10-16T06:38:08.064Z,52.70
2018-10-16T06:40:36.256Z,51.40
2018-10-16T06:43:04.610Z,50.50
2018-10-16T06:45:32.891Z,49.10
2018-10-16T06:48:00.959Z,48.30
2018-10-16T06:50:29.053Z,47.00
2018-10-16T06:52:57.543Z,45.90
2018-10-16T06:55:25.667Z,44.90
2018-10-16T06:57:53.867Z,44.00
2018-10-16T07:00:21.966Z,43.20
2018-10-16T07:02:49.974Z,42.20
2018-10-16T07:05:18.123Z,41.40
2018-10-16T07:07:46.339Z,40.50
2018-10-16T07:10:15.415Z,40.00
2018-10-16T07:12:43.429Z,39.00
2018-10-16T07:15:11.458Z,39.20
2018-10-16T07:17:39.470Z,38.00
2018-10-16T07:20:08.079Z,37.50
2018-10-16T07:22:36.199Z,37.10
2018-10-16T07:25:04.991Z,36.90
2018-10-16T07:27:33.053Z,36.30
2018-10-16T07:30:01.201Z,35.80
2018-10-16T07:32:29.135Z,34.80
2018-10-16T07:34:58.159Z,34.00
2018-10-16T07:37:26.686Z,34.30
2018-10-16T07:39:54.937Z,33.20
2018-10-16T07:42:23.056Z,33.40
2018-10-16T07:44:51.675Z,33.50
2018-10-16T07:47:19.744Z,33.00
2018-10-16T07:49:47.852Z,32.70
2018-10-16T07:52:16.330Z,32.60
2018-10-16T07:54:44.498Z,32.30
2018-10-16T07:57:12.797Z,31.80
2018-10-16T07:59:40.798Z,31.30
2018-10-16T08:02:09.149Z,30.80
2018-10-16T08:04:37.259Z,30.00
2018-10-16T08:07:05.457Z,30.00
2018-10-16T08:09:33.537Z,30.30
2018-10-16T08:12:01.780Z,30.00
2018-10-16T08:14:29.995Z,29.30
2018-10-16T08:16:58.054Z,29.00
2018-10-16T08:19:26.144Z,28.80
2018-10-16T08:21:54.183Z,28.40
2018-10-16T08:24:22.278Z,28.10
2018-10-16T08:26:50.485Z,28.30
2018-10-16T08:29:18.823Z,28.40
2018-10-16T08:31:46.851Z,28.40
2018-10-16T08:34:14.982Z,28.30
2018-10-16T08:36:43.121Z,28.90
2018-10-16T08:39:13.912Z,28.90
2018-10-16T08:43:58.019Z,29.20
2018-10-16T08:46:37.376Z,29.20
2018-10-16T08:49:16.939Z,29.10
2018-10-16T08:51:47.742Z,29.90
2018-10-16T08:54:16.102Z,30.40
2018-10-16T08:56:44.203Z,31.80
2018-10-16T08:59:12.287Z,31.30
2018-10-16T09:01:40.410Z,30.50
2018-10-16T09:04:08.452Z,30.00
2018-10-16T09:06:36.658Z,29.60
2018-10-16T09:09:09.950Z,30.20
2018-10-16T09:11:38.164Z,31.60
2018-10-16T09:14:06.700Z,31.50
2018-10-16T09:16:34.659Z,30.80
2018-10-16T09:19:02.683Z,29.80
2018-10-16T09:21:30.736Z,29.20
2018-10-16T09:23:59.178Z,28.70
2018-10-16T09:26:27.202Z,27.70
2018-10-16T09:28:55.275Z,27.50
2018-10-16T09:31:23.419Z,27.40
2018-10-16T09:33:51.439Z,27.50
2018-10-16T09:36:19.507Z,28.00
2018-10-16T09:38:47.522Z,28.20
2018-10-16T09:41:15.608Z,27.60
2018-10-16T09:43:43.923Z,27.40
2018-10-16T09:46:11.954Z,27.40
2018-10-16T09:48:40.013Z,27.40
2018-10-16T09:51:08.327Z,27.30
2018-10-16T09:53:36.346Z,27.60
2018-10-16T09:56:04.798Z,27.90
2018-10-16T09:58:32.842Z,27.70
2018-10-16T10:01:06.268Z,27.30
2018-10-16T10:03:34.345Z,27.20
2018-10-16T10:06:02.485Z,27.60
2018-10-16T10:08:30.515Z,27.50
2018-10-16T10:10:59.131Z,27.50
2018-10-16T10:13:27.150Z,27.50
2018-10-16T10:15:55.222Z,27.40
2018-10-16T10:18:23.471Z,27.40
2018-10-16T10:20:51.729Z,27.70
2018-10-16T10:23:19.862Z,28.30
2018-10-16T10:25:47.888Z,29.10
2018-10-16T10:28:15.908Z,29.80
2018-10-16T10:30:43.943Z,30.90
2018-10-16T10:33:12.126Z,31.60
2018-10-16T10:35:40.385Z,32.20
2018-10-16T10:38:08.453Z,32.50
2018-10-16T10:40:36.859Z,33.50
2018-10-16T10:43:05.753Z,34.00
2018-10-16T10:45:33.971Z,34.90
2018-10-16T10:48:02.072Z,35.40
2018-10-16T10:50:30.233Z,36.50
2018-10-16T10:52:58.178Z,37.20
2018-10-16T10:55:26.488Z,37.80
2018-10-16T10:57:54.562Z,37.80
2018-10-16T11:00:22.606Z,38.00
2018-10-16T11:02:50.635Z,38.50
2018-10-16T11:05:18.654Z,38.60
2018-10-16T11:07:46.657Z,38.80
2018-10-16T11:10:15.058Z,39.30
2018-10-16T11:12:43.994Z,39.40
2018-10-16T11:15:12.226Z,39.90
2018-10-16T11:17:40.990Z,40.50
2018-10-16T11:20:11.191Z,40.80
2018-10-16T11:22:39.234Z,41.00
2018-10-16T11:25:08.251Z,41.10
2018-10-16T11:27:36.414Z,40.80
2018-10-16T11:30:06.714Z,41.20
2018-10-16T11:32:34.685Z,41.30
2018-10-16T11:35:02.855Z,40.90
2018-10-16T11:37:31.103Z,40.30
2018-10-16T11:39:59.124Z,40.10
2018-10-16T11:42:27.195Z,40.10
2018-10-16T11:44:55.554Z,40.60
2018-10-16T11:47:23.747Z,40.20
2018-10-16T11:49:51.931Z,39.10
2018-10-16T11:52:19.968Z,39.40
2018-10-16T11:54:47.958Z,39.00
2018-10-16T11:57:15.982Z,38.50
2018-10-16T11:59:44.510Z,38.10
2018-10-16T12:02:12.651Z,38.50
2018-10-16T12:04:40.671Z,38.60
2018-10-16T12:07:08.852Z,37.70
2018-10-16T12:09:36.795Z,37.30
2018-10-16T12:12:05.079Z,37.30
2018-10-16T12:14:33.275Z,37.40
2018-10-16T12:17:13.995Z,37.00
2018-10-16T12:19:47.136Z,37.60
2018-10-16T12:22:15.174Z,37.90
2018-10-16T12:24:43.446Z,38.20
2018-10-16T12:27:11.781Z,38.50
2018-10-16T12:29:39.800Z,38.10
2018-10-16T12:32:07.990Z,38.20
2018-10-16T12:34:36.150Z,38.60
2018-10-16T12:37:04.242Z,39.10
2018-10-16T12:39:32.304Z,39.30
2018-10-16T12:42:00.411Z,39.60
2018-10-16T12:44:28.387Z,39.70
2018-10-16T12:46:56.543Z,39.70
2018-10-16T12:49:25.199Z,39.50
2018-10-16T12:51:53.273Z,39.40
2018-10-16T12:54:21.340Z,39.30
2018-10-16T12:56:49.525Z,39.30
2018-10-16T12:59:17.475Z,39.40
2018-10-16T13:01:45.515Z,39.60
2018-10-16T13:04:13.661Z,39.50
2018-10-16T13:06:41.996Z,39.60
2018-10-16T13:09:11.436Z,39.80
2018-10-16T13:11:40.494Z,39.80
2018-10-16T13:14:08.718Z,40.60
2018-10-16T13:16:37.371Z,40.20
2018-10-16T13:19:05.770Z,40.20
2018-10-16T13:21:34.246Z,40.10
2018-10-16T13:24:02.546Z,40.20
2018-10-16T13:26:30.561Z,40.30
2018-10-16T13:28:58.689Z,40.50
2018-10-16T13:31:26.894Z,40.40
2018-10-16T13:33:54.994Z,40.70
2018-10-16T13:36:23.042Z,40.40
2018-10-16T13:38:51.326Z,40.70
2018-10-16T13:41:19.415Z,40.60
2018-10-16T13:43:48.008Z,41.00
2018-10-16T13:46:16.089Z,41.20
2018-10-16T13:48:44.224Z,41.30
2018-10-16T13:51:12.547Z,41.50
2018-10-16T13:53:40.920Z,41.60
2018-10-16T13:56:09.425Z,42.00
2018-10-16T13:58:37.428Z,42.10
2018-10-16T14:01:05.599Z,41.90
2018-10-16T14:03:33.622Z,42.20
2018-10-16T14:06:01.674Z,42.10
2018-10-16T14:08:29.715Z,42.10
2018-10-16T14:10:57.736Z,42.30
2018-10-16T14:13:25.960Z,42.20
2018-10-16T14:15:54.093Z,42.50
2018-10-16T14:18:22.108Z,42.50
2018-10-16T14:20:50.122Z,42.50
2018-10-16T14:23:18.243Z,42.60
2018-10-16T14:25:47.236Z,42.50
2018-10-16T14:28:15.417Z,42.80
2018-10-16T14:30:43.479Z,43.00
2018-10-16T14:33:11.920Z,43.10
2018-10-16T14:35:40.278Z,43.00
2018-10-16T14:38:08.338Z,43.30
2018-10-16T14:40:36.430Z,43.40
2018-10-16T14:43:04.671Z,43.20
2018-10-16T14:45:32.846Z,43.40
2018-10-16T14:48:00.977Z,43.40
2018-10-16T14:50:28.966Z,43.50
2018-10-16T14:52:57.759Z,43.70
2018-10-16T14:55:25.855Z,43.80
2018-10-16T14:57:53.855Z,43.60
2018-10-16T15:00:22.026Z,43.90
2018-10-16T15:02:50.063Z,44.10
2018-10-16T15:05:18.196Z,44.40
2018-10-16T15:07:46.399Z,44.40
2018-10-16T15:10:14.728Z,44.40
2018-10-16T15:12:42.717Z,44.50
2018-10-16T15:15:10.794Z,44.60
2018-10-16T15:17:38.819Z,44.60
2018-10-16T15:20:08.646Z,44.80
2018-10-16T15:22:36.858Z,44.80
2018-10-16T15:25:06.418Z,45.00
2018-10-16T15:27:34.438Z,45.10
2018-10-16T15:30:02.533Z,45.20
2018-10-16T15:32:30.563Z,45.30
2018-10-16T15:34:59.079Z,45.50
2018-10-16T15:37:27.112Z,45.60
2018-10-16T15:39:55.147Z,45.80
2018-10-16T15:42:23.606Z,46.20
2018-10-16T15:44:51.638Z,46.30
2018-10-16T15:47:19.786Z,46.50
2018-10-16T15:49:47.887Z,47.30
2018-10-16T15:52:16.009Z,47.00
2018-10-16T15:54:44.313Z,47.30
2018-10-16T15:57:12.403Z,47.40
2018-10-16T15:59:40.412Z,47.90
2018-10-16T16:02:08.514Z,48.10
2018-10-16T16:04:36.555Z,48.60
2018-10-16T16:07:04.584Z,48.80
2018-10-16T16:09:32.689Z,49.10
2018-10-16T16:12:01.205Z,50.00
2018-10-16T16:14:29.405Z,50.40
2018-10-16T16:16:58.008Z,51.70
2018-10-16T16:19:26.490Z,51.30
2018-10-16T16:21:55.469Z,51.70
2018-10-16T16:24:23.619Z,51.50
2018-10-16T16:26:51.703Z,51.40
2018-10-16T16:29:19.808Z,52.20
2018-10-16T16:31:47.886Z,52.20
2018-10-16T16:34:15.967Z,52.50
2018-10-16T16:36:44.208Z,52.80
2018-10-16T16:39:13.774Z,52.80
2018-10-16T16:41:42.228Z,53.30
2018-10-16T16:44:10.437Z,53.40
2018-10-16T16:46:38.868Z,53.70
2018-10-16T16:49:07.480Z,54.20
2018-10-16T16:51:35.525Z,54.10
2018-10-16T16:54:03.615Z,54.50
2018-10-16T16:56:34.709Z,54.70
2018-10-16T16:59:06.550Z,54.80
2018-10-16T17:01:34.619Z,55.00
2018-10-16T17:04:02.675Z,55.30
2018-10-16T17:06:30.712Z,55.70
2018-10-16T17:08:59.083Z,55.90
2018-10-16T17:11:27.096Z,55.70
2018-10-16T17:13:55.170Z,57.20
2018-10-16T17:16:23.194Z,56.20
2018-10-16T17:18:51.211Z,56.30
2018-10-16T17:21:19.335Z,56.80
2018-10-16T17:23:47.443Z,57.10
2018-10-16T17:26:15.849Z,57.50
2018-10-16T17:28:43.629Z,57.70
2018-10-16T17:31:11.828Z,57.40
2018-10-16T17:33:40.571Z,57.90
2018-10-16T17:36:08.624Z,58.10
2018-10-16T17:38:36.876Z,58.10
2018-10-16T17:41:05.166Z,58.50
2018-10-16T17:43:33.175Z,58.80
2018-10-16T17:46:01.567Z,59.30
2018-10-16T17:48:29.667Z,59.50
2018-10-16T17:50:57.750Z,59.40
2018-10-16T17:53:25.927Z,59.70
2018-10-16T17:55:53.950Z,59.70
2018-10-16T17:58:22.315Z,59.70
2018-10-16T18:00:50.524Z,59.80
2018-10-16T18:03:18.709Z,60.60
2018-10-16T18:05:47.224Z,60.90
2018-10-16T18:08:15.447Z,60.80
2018-10-16T18:10:43.572Z,60.80
2018-10-16T18:13:11.599Z,61.40
2018-10-16T18:15:40.636Z,61.80
2018-10-16T18:18:08.768Z,61.70
2018-10-16T18:20:36.881Z,62.30
2018-10-16T18:23:05.463Z,62.10
2018-10-16T18:25:33.512Z,62.20
2018-10-16T18:28:01.610Z,62.80
2018-10-16T18:30:30.045Z,63.00
2018-10-16T18:32:58.141Z,62.80
2018-10-16T18:35:26.267Z,63.00
2018-10-16T18:37:54.378Z,63.20
2018-10-16T18:40:22.679Z,63.20
2018-10-16T18:42:50.786Z,63.20
2018-10-16T18:45:19.417Z,63.30
2018-10-16T18:47:47.543Z,63.50
2018-10-16T18:50:15.846Z,63.60
2018-10-16T18:52:44.697Z,63.70
2018-10-16T18:55:13.743Z,64.20
2018-10-16T18:57:42.683Z,64.30
2018-10-16T19:00:15.477Z,64.30
2018-10-16T19:02:44.042Z,64.70
2018-10-16T19:05:12.051Z,64.20
2018-10-16T19:07:40.949Z,64.20
2018-10-16T19:10:09.043Z,64.30
2018-10-16T19:12:38.764Z,65.00
2018-10-16T19:15:07.447Z,64.80
2018-10-16T19:17:35.535Z,65.00
2018-10-16T19:20:03.723Z,64.80
2018-10-16T19:22:31.921Z,65.00
2018-10-16T19:25:00.069Z,65.20
2018-10-16T19:27:28.230Z,66.20
2018-10-16T19:29:56.508Z,65.80
2018-10-16T19:32:24.803Z,65.60
2018-10-16T19:34:53.123Z,66.00
2018-10-16T19:37:21.283Z,66.10
2018-10-16T19:39:49.340Z,66.10
2018-10-16T19:42:17.470Z,66.00
2018-10-16T19:44:45.564Z,66.20
2018-10-16T19:47:13.835Z,66.20
2018-10-16T19:49:41.880Z,66.60
2018-10-16T19:52:10.117Z,66.80
2018-10-16T19:54:38.344Z,67.00
2018-10-16T19:57:06.428Z,67.00
2018-10-16T19:59:35.605Z,67.20
2018-10-16T20:02:04.563Z,67.50
2018-10-16T20:04:32.620Z,67.50
2018-10-16T20:07:01.265Z,67.80
2018-10-16T20:09:29.493Z,67.80
2018-10-16T20:11:57.603Z,67.80
2018-10-16T20:14:25.741Z,67.90
2018-10-16T20:16:55.140Z,67.90
2018-10-16T20:19:23.782Z,68.00
2018-10-16T20:21:52.019Z,68.40
2018-10-16T20:24:20.772Z,68.20
2018-10-16T20:26:49.384Z,68.40
2018-10-16T20:29:17.815Z,68.40
2018-10-16T20:31:45.957Z,68.20
2018-10-16T20:34:14.263Z,68.20
2018-10-16T20:36:42.373Z,68.50
2018-10-16T20:39:13.006Z,68.40
2018-10-16T20:41:41.534Z,68.50
2018-10-16T20:44:09.855Z,68.60
2018-10-16T20:46:38.466Z,68.70
2018-10-16T20:49:06.904Z,68.80
2018-10-16T20:51:35.984Z,68.80
2018-10-16T20:54:04.209Z,69.20
2018-10-16T20:56:32.899Z,69.40
2018-10-16T20:59:00.988Z,69.80
2018-10-16T21:01:29.097Z,69.80
2018-10-16T21:03:57.495Z,70.60
2018-10-16T21:06:25.713Z,70.40
2018-10-16T21:08:53.690Z,69.90
2018-10-16T21:11:21.924Z,70.00
2018-10-16T21:13:50.398Z,70.10
2018-10-16T21:16:18.751Z,70.20
2018-10-16T21:18:46.812Z,71.10
2018-10-16T21:21:14.894Z,70.80
2018-10-16T21:23:42.976Z,70.60
2018-10-16T21:26:11.310Z,70.60
2018-10-16T21:28:39.366Z,70.70
2018-10-16T21:31:07.466Z,70.60
2018-10-16T21:33:35.786Z,70.30
2018-10-16T21:36:03.833Z,70.70
2018-10-16T21:38:31.877Z,70.80
2018-10-16T21:41:00.051Z,70.90
2018-10-16T21:43:28.044Z,71.10
2018-10-16T21:45:56.063Z,71.40
2018-10-16T21:48:24.214Z,71.50
2018-10-16T21:50:52.222Z,71.40
2018-10-16T21:53:20.352Z,71.30
2018-10-16T21:55:48.615Z,71.10
2018-10-16T21:58:16.665Z,71.40
2018-10-16T22:00:50.523Z,71.40
2018-10-16T22:03:18.547Z,71.50
2018-10-16T22:05:46.878Z,72.00
2018-10-16T22:08:14.964Z,71.40
2018-10-16T22:10:42.992Z,71.40
2018-10-16T22:13:11.767Z,71.40
2018-10-16T22:15:39.961Z,71.50
2018-10-16T22:18:08.115Z,72.00
2018-10-16T22:20:36.220Z,71.80
2018-10-16T22:23:05.187Z,72.00
2018-10-16T22:25:33.151Z,72.30
2018-10-16T22:28:01.194Z,72.50
2018-10-16T22:30:29.406Z,72.60
2018-10-16T22:32:57.445Z,73.00
2018-10-16T22:35:25.471Z,73.10
2018-10-16T22:37:53.560Z,73.10
2018-10-16T22:40:21.698Z,73.10
2018-10-16T22:42:49.722Z,73.50
2018-10-16T22:45:18.030Z,73.60
2018-10-16T22:47:46.087Z,73.90
2018-10-16T22:50:14.134Z,73.80
2018-10-16T22:52:42.211Z,74.00
2018-10-16T22:55:10.696Z,74.00
2018-10-16T22:57:39.009Z,74.30
2018-10-16T23:00:13.879Z,74.50
2018-10-16T23:02:42.315Z,74.40
2018-10-16T23:05:10.407Z,74.70
2018-10-16T23:07:38.675Z,74.70
2018-10-16T23:10:06.834Z,75.10
2018-10-16T23:12:34.907Z,75.30
2018-10-16T23:15:03.033Z,75.00
2018-10-16T23:17:31.162Z,74.90
2018-10-16T23:19:59.610Z,75.10
2018-10-16T23:22:27.739Z,75.50
2018-10-16T23:24:56.018Z,75.90
2018-10-16T23:27:24.131Z,76.00
2018-10-16T23:29:52.339Z,75.80
2018-10-16T23:32:20.398Z,76.00
2018-10-16T23:34:48.579Z,76.20
2018-10-16T23:37:16.797Z,76.00
2018-10-16T23:39:44.702Z,76.40
2018-10-16T23:42:12.728Z,76.30
2018-10-16T23:44:40.824Z,76.50
2018-10-16T23:47:09.055Z,76.40
2018-10-16T23:49:37.122Z,76.50
2018-10-16T23:52:05.331Z,76.60
2018-10-16T23:54:33.391Z,76.60
2018-10-16T23:57:01.404Z,76.70
2018-10-16T23:59:29.626Z,76.80
